Time;durP1;ratioP1;P1;durP2;ratioP2;P2;SDS_P1;SDS_P2;PMS_P1;PMS_P2;Temp;Humidity;BMP_temperature;BMP_pressure;BME280_temperature;BME280_humidity;BME280_pressure;Samples;Min_cycle;Max_cycle;Signal;HPM_P1;HPM_P2
2023/10/26 04:09:07;;;;;;;8.02;4.95;;;;;;;13.36;100.00;98907.72;5600905;31;77313;-61
2023/10/26 04:12:10;;;;;;;9.60;4.85;;;;;;;13.36;100.00;98907.72;5602133;31;33351;-61
2023/10/26 04:15:12;;;;;;;10.95;5.35;;;;;;;12.94;100.00;98894.34;5595136;31;33168;-63
2023/10/26 04:18:14;;;;;;;16.20;5.60;;;;;;;12.98;100.00;98900.66;5602190;31;33277;-62
2023/10/26 04:21:17;;;;;;;7.30;4.50;;;;;;;13.00;100.00;98898.41;5603105;31;33532;-62
2023/10/26 04:24:19;;;;;;;8.48;4.68;;;;;;;12.90;100.00;98894.22;5594087;31;33645;-62
2023/10/26 04:27:21;;;;;;;9.93;5.07;;;;;;;12.80;100.00;98905.41;5583549;31;33648;-61
2023/10/26 04:30:24;;;;;;;6.85;4.78;;;;;;;13.06;100.00;98909.75;5583301;32;33603;-62
2023/10/26 04:33:26;;;;;;;8.68;5.25;;;;;;;13.11;100.00;98904.16;5589220;31;33561;-62
2023/10/26 04:36:29;;;;;;;6.55;4.60;;;;;;;13.11;100.00;98896.06;5602199;31;33464;-61
2023/10/26 04:39:31;;;;;;;8.23;4.87;;;;;;;13.11;100.00;98902.25;5603033;31;34206;-62
2023/10/26 04:42:34;;;;;;;8.48;4.80;;;;;;;12.98;100.00;98902.53;5601309;31;34231;-62
2023/10/26 04:45:36;;;;;;;6.53;4.87;;;;;;;13.02;100.00;98898.09;5603132;31;33691;-62
2023/10/26 04:48:39;;;;;;;8.45;4.93;;;;;;;13.01;100.00;98899.19;5602118;31;33207;-62
2023/10/26 04:51:41;;;;;;;6.60;4.87;;;;;;;12.98;100.00;98905.22;5602883;31;34366;-62
2023/10/26 04:54:44;;;;;;;10.88;5.50;;;;;;;12.93;100.00;98893.56;5601984;31;33172;-62
2023/10/26 04:57:46;;;;;;;11.77;5.80;;;;;;;13.07;100.00;98900.56;5601907;31;33668;-61
2023/10/26 05:00:49;;;;;;;8.00;5.43;;;;;;;13.11;100.00;98896.06;5599576;31;33324;-62
2023/10/26 05:03:53;;;;;;;10.13;5.40;;;;;;;13.09;100.00;98887.56;5591805;31;34195;-62
2023/10/26 05:06:56;;;;;;;7.40;5.70;;;;;;;13.17;100.00;98889.38;5596503;31;33506;-62
2023/10/26 05:10:02;;;;;;;8.68;5.45;;;;;;;13.28;100.00;98890.56;5596404;31;34307;-62
2023/10/26 05:13:04;;;;;;;7.55;5.78;;;;;;;13.61;100.00;98890.47;5593959;31;33723;-62
2023/10/26 05:16:09;;;;;;;8.70;5.85;;;;;;;13.56;100.00;98890.69;5592593;31;33581;-62
2023/10/26 05:19:11;;;;;;;7.80;5.78;;;;;;;13.42;100.00;98901.00;5594406;31;34382;-62
2023/10/26 05:22:13;;;;;;;9.65;5.80;;;;;;;13.47;100.00;98895.37;5587764;31;34023;-62
2023/10/26 05:25:16;;;;;;;8.38;5.78;;;;;;;13.53;100.00;98895.97;5585004;31;33192;-61
2023/10/26 05:28:19;;;;;;;9.00;5.47;;;;;;;13.48;100.00;98891.59;5581575;31;33058;-62
2023/10/26 05:31:21;;;;;;;8.18;5.45;;;;;;;13.54;100.00;98901.03;5588628;31;33560;-63
2023/10/26 05:34:23;;;;;;;9.82;5.35;;;;;;;13.54;100.00;98903.72;5586997;31;33775;-62
2023/10/26 05:37:26;;;;;;;9.93;5.70;;;;;;;13.59;100.00;98914.25;5587613;31;34281;-62
2023/10/26 05:40:28;;;;;;;12.90;5.00;;;;;;;13.75;100.00;98913.59;5584745;31;33842;-62
2023/10/26 05:43:31;;;;;;;7.70;5.35;;;;;;;13.75;100.00;98908.97;5589347;31;33547;-60
2023/10/26 05:46:34;;;;;;;12.02;5.78;;;;;;;13.81;100.00;98926.50;5587382;31;33975;-62
2023/10/26 05:49:36;;;;;;;7.60;5.15;;;;;;;14.03;100.00;98924.44;5582028;31;34320;-62
2023/10/26 05:52:39;;;;;;;9.80;5.00;;;;;;;14.13;100.00;98931.28;5581626;31;33604;-62
2023/10/26 05:55:42;;;;;;;11.75;5.35;;;;;;;14.23;100.00;98925.44;5588196;31;33751;-62
2023/10/26 05:58:48;;;;;;;13.50;5.97;;;;;;;14.07;100.00;98926.16;5586371;31;34412;-62
2023/10/26 06:01:50;;;;;;;10.15;4.93;;;;;;;14.03;100.00;98922.53;5580487;31;34050;-62
2023/10/26 06:04:53;;;;;;;13.95;6.22;;;;;;;14.05;100.00;98928.38;5587679;31;33538;-62
2023/10/26 06:07:55;;;;;;;12.48;5.22;;;;;;;14.13;100.00;98940.16;5584223;31;34394;-62
2023/10/26 06:10:58;;;;;;;14.15;4.62;;;;;;;14.11;100.00;98939.72;5586817;31;34424;-61
2023/10/26 06:14:00;;;;;;;8.75;4.12;;;;;;;14.04;100.00;98951.06;5587489;31;33978;-62
2023/10/26 06:17:03;;;;;;;11.95;4.90;;;;;;;14.08;100.00;98959.25;5587937;31;33599;-62
2023/10/26 06:20:07;;;;;;;10.80;4.65;;;;;;;14.19;100.00;98970.38;5586845;31;33596;-63
2023/10/26 06:23:11;;;;;;;8.50;5.03;;;;;;;14.41;100.00;98975.28;5585833;31;33588;-62
2023/10/26 06:26:13;;;;;;;8.00;5.05;;;;;;;14.36;100.00;98978.22;5586125;31;33583;-62
2023/10/26 06:29:15;;;;;;;9.90;5.47;;;;;;;14.50;100.00;98980.53;5587051;31;33542;-62
2023/10/26 06:32:18;;;;;;;10.50;6.30;;;;;;;14.41;100.00;98977.22;5575951;31;33654;-61
2023/10/26 06:35:21;;;;;;;13.35;6.20;;;;;;;14.27;100.00;98969.44;5584065;31;33709;-62
2023/10/26 06:38:23;;;;;;;11.27;6.00;;;;;;;14.29;100.00;98980.69;5581839;31;33639;-62
2023/10/26 06:41:25;;;;;;;13.32;5.47;;;;;;;14.26;100.00;98965.97;5586879;31;33724;-62
2023/10/26 06:44:28;;;;;;;15.48;5.75;;;;;;;14.32;100.00;98963.84;5585852;31;33815;-63
2023/10/26 06:47:30;;;;;;;12.18;5.05;;;;;;;14.42;100.00;98971.47;5583595;31;34348;-62
2023/10/26 06:50:33;;;;;;;7.28;4.85;;;;;;;14.46;100.00;98980.44;5581866;31;33884;-62
2023/10/26 06:53:36;;;;;;;11.18;4.37;;;;;;;14.43;100.00;98975.72;5581104;31;34421;-62
2023/10/26 06:56:38;;;;;;;10.90;4.25;;;;;;;14.46;100.00;98966.16;5582224;31;33679;-62
2023/10/26 06:59:41;;;;;;;11.38;5.00;;;;;;;14.43;100.00;98967.62;5586480;31;34261;-64
2023/10/26 07:02:43;;;;;;;8.35;4.87;;;;;;;14.45;100.00;98970.00;5586962;31;33687;-65
2023/10/26 07:05:47;;;;;;;9.63;4.30;;;;;;;14.48;100.00;98974.72;5582951;31;34175;-64
2023/10/26 07:08:50;;;;;;;13.62;4.30;;;;;;;14.54;100.00;98959.91;5582441;31;34347;-64
2023/10/26 07:11:58;;;;;;;12.45;4.30;;;;;;;14.52;100.00;98962.94;5583805;31;34295;-65
2023/10/26 07:15:00;;;;;;;8.50;3.97;;;;;;;14.59;100.00;98962.34;5586839;31;33630;-65
2023/10/26 07:18:04;;;;;;;6.90;4.07;;;;;;;14.63;100.00;98974.03;5577874;31;33279;-65
2023/10/26 07:21:07;;;;;;;9.32;4.12;;;;;;;14.64;100.00;98991.78;5586532;31;33617;-65
2023/10/26 07:24:11;;;;;;;9.70;5.25;;;;;;;14.64;100.00;98997.19;5588426;31;34347;-65
2023/10/26 07:27:13;;;;;;;9.80;5.10;;;;;;;14.74;100.00;98996.72;5585753;31;33245;-64
2023/10/26 07:30:17;;;;;;;9.02;5.00;;;;;;;14.75;100.00;99000.19;5583775;31;33540;-65
2023/10/26 07:33:19;;;;;;;10.43;5.12;;;;;;;14.82;100.00;99003.09;5582976;31;33724;-65
2023/10/26 07:36:25;;;;;;;8.68;4.53;;;;;;;14.89;100.00;98997.88;5585760;31;34316;-64
2023/10/26 07:39:28;;;;;;;8.32;4.40;;;;;;;14.86;100.00;98973.50;5570338;31;34348;-65
2023/10/26 07:42:48;;;;;;;7.50;4.97;;;;;;;14.93;100.00;98963.72;5587380;31;33668;-65
2023/10/26 07:45:51;;;;;;;8.75;5.18;;;;;;;14.85;100.00;98977.34;5585498;31;33547;-65
2023/10/26 07:48:54;;;;;;;9.98;5.47;;;;;;;14.76;100.00;98991.75;5586814;31;33620;-65
2023/10/26 07:51:56;;;;;;;8.85;5.93;;;;;;;14.73;100.00;98992.41;5584317;31;33693;-65
2023/10/26 07:54:58;;;;;;;9.88;5.20;;;;;;;14.79;100.00;98993.75;5581414;31;33692;-65
2023/10/26 07:58:03;;;;;;;7.70;4.85;;;;;;;14.90;100.00;98995.97;5581401;31;33817;-65
2023/10/26 08:01:09;;;;;;;7.97;4.50;;;;;;;15.03;100.00;99005.59;5583855;31;34375;-64
2023/10/26 08:04:12;;;;;;;8.50;4.90;;;;;;;15.03;100.00;99016.41;5584156;31;33554;-65
2023/10/26 08:07:14;;;;;;;10.68;5.43;;;;;;;15.01;100.00;99013.28;5580700;31;33971;-64
2023/10/26 08:10:23;;;;;;;8.25;5.05;;;;;;;15.09;100.00;99014.25;5583791;31;33668;-62
2023/10/26 08:13:28;;;;;;;9.98;5.15;;;;;;;15.14;100.00;99022.12;5585549;31;32247;-62
2023/10/26 08:16:30;;;;;;;9.30;5.43;;;;;;;15.22;100.00;99018.47;5577800;31;33623;-62
2023/10/26 08:19:45;;;;;;;9.63;5.45;;;;;;;15.31;100.00;99008.31;5582334;31;33170;-62
2023/10/26 08:22:48;;;;;;;9.07;5.40;;;;;;;15.43;100.00;99015.53;5583242;31;33626;-62
2023/10/26 08:25:50;;;;;;;13.77;5.80;;;;;;;15.39;100.00;99020.84;5586704;31;33733;-62
2023/10/26 08:28:54;;;;;;;9.15;5.40;;;;;;;15.31;100.00;99024.50;5585830;31;33682;-62
2023/10/26 08:32:15;;;;;;;10.00;5.28;;;;;;;15.35;100.00;99028.09;5586413;31;33569;-62
2023/10/26 08:35:18;;;;;;;11.40;6.25;;;;;;;15.27;100.00;99040.63;5579535;31;33584;-62
2023/10/26 08:38:20;;;;;;;11.00;5.72;;;;;;;15.26;100.00;99030.94;5577731;31;33727;-62
2023/10/26 08:41:32;;;;;;;9.93;5.93;;;;;;;15.45;100.00;99032.19;5580867;31;34351;-62
2023/10/26 08:44:37;;;;;;;10.55;5.75;;;;;;;15.43;100.00;99020.94;5586027;31;33696;-62
2023/10/26 08:47:44;;;;;;;7.55;5.10;;;;;;;15.55;100.00;99022.81;5582868;31;34384;-62
2023/10/26 08:50:48;;;;;;;8.98;5.93;;;;;;;15.46;100.00;99022.97;5583856;31;33635;-62
2023/10/26 08:53:51;;;;;;;9.85;6.15;;;;;;;15.54;100.00;99023.97;5585291;31;33246;-62
2023/10/26 08:57:10;;;;;;;10.80;5.87;;;;;;;15.51;100.00;99023.50;5579070;31;34014;-62
2023/10/26 09:00:15;;;;;;;7.37;4.95;;;;;;;15.47;100.00;99027.25;5587849;31;33703;-62
2023/10/26 09:03:21;;;;;;;8.85;5.65;;;;;;;15.47;100.00;99021.84;5577571;31;34370;-62
2023/10/26 09:06:42;;;;;;;12.13;6.07;;;;;;;15.54;100.00;99027.44;5581753;31;33575;-62
2023/10/26 09:09:46;;;;;;;11.63;6.35;;;;;;;15.59;100.00;99019.06;5575981;31;33296;-62
2023/10/26 09:12:59;;;;;;;10.05;6.32;;;;;;;15.73;100.00;99024.09;5587113;31;33825;-62
2023/10/26 09:16:03;;;;;;;10.02;5.55;;;;;;;15.81;100.00;99028.53;5576368;31;33278;-62
2023/10/26 09:19:06;;;;;;;8.35;5.35;;;;;;;15.77;100.00;99029.59;5585243;31;33784;-62
2023/10/26 09:22:12;;;;;;;7.97;5.07;;;;;;;15.79;100.00;99030.78;5579001;31;33646;-62
2023/10/26 09:25:15;;;;;;;10.13;4.82;;;;;;;15.77;99.59;99026.88;5582045;31;33611;-62
2023/10/26 09:28:18;;;;;;;9.93;4.72;;;;;;;15.83;100.00;99034.41;5581693;31;33458;-61
2023/10/26 09:31:21;;;;;;;8.75;5.20;;;;;;;15.94;100.00;99046.25;5579906;31;34368;-61
2023/10/26 09:34:24;;;;;;;10.73;5.45;;;;;;;15.94;99.87;99038.13;5583106;31;33609;-62
2023/10/26 09:37:27;;;;;;;9.13;5.20;;;;;;;16.09;100.00;99036.59;5582524;31;33717;-62
2023/10/26 09:40:30;;;;;;;9.13;5.35;;;;;;;16.19;100.00;99046.06;5585839;31;33796;-62
2023/10/26 09:43:32;;;;;;;6.82;5.20;;;;;;;16.27;100.00;99039.69;5586363;31;33747;-62
2023/10/26 09:46:35;;;;;;;10.38;5.70;;;;;;;16.30;100.00;99039.00;5587023;31;32187;-62
2023/10/26 09:49:38;;;;;;;9.05;5.65;;;;;;;16.38;100.00;99035.31;5581527;31;33403;-62
2023/10/26 09:52:42;;;;;;;8.07;5.22;;;;;;;16.44;100.00;99030.44;5582583;31;33720;-62
2023/10/26 09:55:47;;;;;;;7.00;5.00;;;;;;;16.36;97.74;99036.81;5579301;31;33611;-62
2023/10/26 09:58:51;;;;;;;7.05;5.28;;;;;;;16.47;100.00;99026.25;5586834;31;34447;-62
2023/10/26 10:01:54;;;;;;;8.63;5.47;;;;;;;16.54;100.00;99032.59;5585241;31;34304;-62
2023/10/26 10:04:57;;;;;;;7.60;5.50;;;;;;;16.47;96.75;99031.66;5586150;31;34344;-62
2023/10/26 10:07:59;;;;;;;6.47;5.53;;;;;;;16.53;97.20;99035.66;5585797;31;34630;-62
2023/10/26 10:11:17;;;;;;;9.30;6.22;;;;;;;16.49;96.77;99024.75;5587258;31;33742;-62
2023/10/26 10:14:48;;;;;;;7.72;5.55;;;;;;;16.49;97.02;99022.06;5587551;31;33749;-63
2023/10/26 10:17:50;;;;;;;8.95;5.20;;;;;;;16.55;98.10;99022.53;5583831;31;34379;-62
2023/10/26 10:20:53;;;;;;;9.68;5.70;;;;;;;16.52;93.86;99023.25;5587921;31;34323;-62
2023/10/26 10:23:55;;;;;;;6.95;5.03;;;;;;;16.57;95.62;99017.56;5587374;31;33746;-62
2023/10/26 10:27:10;;;;;;;7.60;4.78;;;;;;;16.68;95.27;99015.88;5586704;31;34333;-62
2023/10/26 10:30:14;;;;;;;8.85;5.18;;;;;;;16.65;94.50;99011.16;5585539;31;33713;-62
2023/10/26 10:33:29;;;;;;;6.62;4.20;;;;;;;16.71;97.23;98998.94;5586094;31;33688;-62
2023/10/26 10:37:10;;;;;;;4.70;3.17;;;;;;;16.68;88.87;99000.41;5577179;31;33706;-62
2023/10/26 10:40:14;;;;;;;4.10;3.40;;;;;;;16.73;89.56;99001.31;5574499;31;33853;-62
2023/10/26 10:43:17;;;;;;;4.62;3.60;;;;;;;16.76;86.37;98997.91;5586932;31;33321;-62
2023/10/26 10:46:26;;;;;;;8.65;3.50;;;;;;;16.76;85.56;99000.63;5587642;31;34358;-62
2023/10/26 10:49:29;;;;;;;4.53;3.58;;;;;;;16.83;85.55;99006.97;5578150;31;33231;-62
2023/10/26 10:52:31;;;;;;;5.50;3.47;;;;;;;16.83;87.29;99000.75;5581555;31;34298;-62
2023/10/26 10:55:33;;;;;;;5.60;3.50;;;;;;;16.95;91.14;98997.91;5581118;31;33781;-62
2023/10/26 10:58:36;;;;;;;6.87;3.80;;;;;;;16.97;88.88;98994.84;5582472;31;34255;-60
2023/10/26 11:01:39;;;;;;;7.70;3.97;;;;;;;17.03;88.72;98996.91;5576649;31;34331;-62
2023/10/26 11:04:56;;;;;;;7.22;4.18;;;;;;;16.97;83.58;99002.97;5581167;31;32863;-62
2023/10/26 11:08:15;;;;;;;6.20;4.10;;;;;;;16.94;85.81;98990.16;5579823;31;33617;-62
2023/10/26 11:11:27;;;;;;;6.60;3.40;;;;;;;16.97;91.48;98995.63;5577240;31;34466;-62
2023/10/26 11:14:31;;;;;;;5.60;3.67;;;;;;;17.03;90.46;98988.03;5581733;31;33955;-62
2023/10/26 11:17:34;;;;;;;5.80;3.33;;;;;;;17.13;89.04;98990.94;5578428;31;33754;-62
2023/10/26 11:20:42;;;;;;;5.65;3.17;;;;;;;17.21;90.53;98991.06;5583779;31;33726;-62
2023/10/26 11:23:51;;;;;;;6.35;3.70;;;;;;;17.21;92.46;98983.72;5585691;31;33406;-62
2023/10/26 11:27:17;;;;;;;4.40;3.20;;;;;;;17.35;88.50;98981.28;5582249;31;34865;-62
2023/10/26 11:30:20;;;;;;;9.48;3.42;;;;;;;17.29;82.18;98977.31;5583118;31;33778;-62
2023/10/26 11:33:37;;;;;;;5.12;3.20;;;;;;;17.47;91.03;98974.13;5587013;31;33349;-62
2023/10/26 11:36:44;;;;;;;6.95;3.58;;;;;;;17.61;89.07;98975.16;5581437;31;34057;-62
2023/10/26 11:39:49;;;;;;;6.05;2.90;;;;;;;17.59;82.30;98972.03;5581507;31;34375;-65
2023/10/26 11:43:02;;;;;;;4.05;3.20;;;;;;;17.48;78.99;98968.38;5583865;31;33960;-65
2023/10/26 11:46:05;;;;;;;4.45;2.83;;;;;;;17.57;80.13;98973.53;5586161;31;33539;-65
2023/10/26 11:49:08;;;;;;;4.03;2.75;;;;;;;17.51;81.25;98969.53;5584424;31;33777;-65
2023/10/26 11:52:11;;;;;;;4.60;2.45;;;;;;;17.47;77.72;98974.13;5586587;31;33616;-65
2023/10/26 11:55:17;;;;;;;3.72;2.08;;;;;;;17.60;86.59;98976.28;5585491;31;34256;-65
2023/10/26 11:58:20;;;;;;;3.70;2.10;;;;;;;17.69;78.12;98964.44;5581356;31;34336;-65
2023/10/26 12:01:22;;;;;;;2.83;2.22;;;;;;;17.68;73.82;98965.56;5579221;31;33661;-63
2023/10/26 12:04:24;;;;;;;4.03;2.10;;;;;;;17.57;71.83;98968.88;5570983;31;33798;-65
2023/10/26 12:07:27;;;;;;;2.60;2.05;;;;;;;17.55;70.17;98973.13;5584262;31;33656;-65
2023/10/26 12:10:29;;;;;;;5.85;2.80;;;;;;;17.57;74.15;98974.31;5584722;31;34755;-65
2023/10/26 12:13:33;;;;;;;2.58;2.03;;;;;;;17.56;71.97;98977.38;5583911;31;34623;-65
2023/10/26 12:16:36;;;;;;;3.65;2.40;;;;;;;17.60;70.48;98984.41;5582276;31;32418;-65
2023/10/26 12:19:38;;;;;;;5.05;2.22;;;;;;;17.56;68.64;98971.97;5578786;31;34257;-65
2023/10/26 12:22:41;;;;;;;2.53;1.80;;;;;;;17.60;70.11;98984.41;5583960;31;33619;-65
2023/10/26 12:25:43;;;;;;;3.53;1.85;;;;;;;17.72;72.36;98994.31;5583704;31;33690;-65
2023/10/26 12:28:49;;;;;;;4.10;1.70;;;;;;;17.73;63.51;98993.16;5583950;31;33614;-64
2023/10/26 12:31:51;;;;;;;2.33;1.52;;;;;;;17.77;65.59;98994.03;5580162;31;33802;-65
2023/10/26 12:34:54;;;;;;;5.37;2.92;;;;;;;17.84;63.46;98983.28;5581305;31;33489;-65
2023/10/26 12:37:56;;;;;;;5.75;4.37;;;;;;;17.86;67.84;98987.59;5588706;31;33749;-65
2023/10/26 12:40:59;;;;;;;5.70;3.78;;;;;;;17.87;72.31;98983.72;5579687;31;33603;-65
2023/10/26 12:44:01;;;;;;;4.65;3.15;;;;;;;17.94;77.09;98981.13;5580701;31;33093;-65
2023/10/26 12:47:04;;;;;;;5.90;3.60;;;;;;;18.06;80.69;98970.09;5574346;31;34514;-65
2023/10/26 12:50:06;;;;;;;5.50;3.22;;;;;;;18.14;76.75;98973.69;5569967;32;34364;-65
2023/10/26 12:53:09;;;;;;;5.68;3.10;;;;;;;18.17;74.96;98979.16;5569640;31;34305;-65
2023/10/26 12:56:11;;;;;;;7.78;3.15;;;;;;;18.10;77.85;98981.78;5569809;32;34331;-65
2023/10/26 12:59:13;;;;;;;5.05;3.42;;;;;;;18.07;72.71;98975.13;5569555;32;33312;-65
2023/10/26 13:02:16;;;;;;;3.62;2.70;;;;;;;18.13;78.37;98972.13;5569752;32;33656;-65
2023/10/26 13:05:18;;;;;;;4.95;2.90;;;;;;;18.20;72.29;98974.94;5572977;31;33771;-65
2023/10/26 13:08:20;;;;;;;7.65;3.33;;;;;;;18.19;71.69;98982.31;5588899;31;33684;-65
2023/10/26 13:11:23;;;;;;;5.28;3.03;;;;;;;18.17;76.57;98971.03;5589000;31;33649;-65
2023/10/26 13:14:25;;;;;;;5.30;2.92;;;;;;;18.16;70.35;98977.59;5588746;31;33622;-65
2023/10/26 13:17:27;;;;;;;4.93;3.03;;;;;;;18.17;70.85;98973.75;5589117;31;33692;-65
2023/10/26 13:20:30;;;;;;;4.55;2.90;;;;;;;18.19;75.19;98974.16;5588696;31;33650;-65
2023/10/26 13:23:35;;;;;;;5.20;2.85;;;;;;;18.14;70.00;98973.69;5582854;31;33765;-65
2023/10/26 13:26:37;;;;;;;6.45;2.70;;;;;;;18.17;77.01;98976.44;5589101;31;33695;-65
2023/10/26 13:29:40;;;;;;;5.20;2.78;;;;;;;18.14;68.88;98977.19;5583782;31;33813;-65
2023/10/26 13:32:42;;;;;;;4.00;2.78;;;;;;;18.15;73.08;98977.97;5588837;31;33214;-65
2023/10/26 13:35:44;;;;;;;5.53;2.50;;;;;;;18.22;68.94;98980.78;5587962;31;33809;-65
2023/10/26 13:38:47;;;;;;;11.00;2.90;;;;;;;18.17;69.63;98967.53;5574979;31;33603;-65
2023/10/26 13:41:49;;;;;;;3.60;2.40;;;;;;;18.16;73.52;98971.41;5568818;32;33711;-65
2023/10/26 13:44:51;;;;;;;3.22;2.60;;;;;;;18.13;71.72;98966.72;5568622;32;34395;-65
2023/10/26 13:47:54;;;;;;;3.12;2.20;;;;;;;18.20;71.56;98978.44;5569225;32;33579;-65
2023/10/26 13:50:56;;;;;;;5.87;2.80;;;;;;;18.24;70.87;98981.97;5568974;32;33211;-65
2023/10/26 13:53:58;;;;;;;4.68;2.95;;;;;;;18.19;75.76;98976.88;5569365;32;34367;-65
2023/10/26 13:57:01;;;;;;;10.82;3.30;;;;;;;18.18;71.39;98979.94;5568929;32;33636;-65
2023/10/26 14:00:06;;;;;;;4.72;2.90;;;;;;;18.20;75.47;98970.31;5568657;32;33654;-65
2023/10/26 14:03:13;;;;;;;5.72;2.85;;;;;;;18.23;79.49;98966.84;5576629;31;33992;-63
2023/10/26 14:06:15;;;;;;;6.82;2.80;;;;;;;18.28;72.25;98949.50;5585700;31;34376;-63
2023/10/26 14:09:18;;;;;;;5.60;3.05;;;;;;;18.20;72.01;98948.59;5582964;31;33643;-62
2023/10/26 14:12:20;;;;;;;4.97;3.15;;;;;;;18.18;73.30;98958.25;5584788;31;33688;-62
2023/10/26 14:15:22;;;;;;;5.37;2.83;;;;;;;18.10;71.96;98959.28;5576643;31;33777;-63
2023/10/26 14:18:25;;;;;;;4.70;2.95;;;;;;;18.05;73.79;98965.81;5579028;31;33236;-62
2023/10/26 14:21:27;;;;;;;4.65;2.70;;;;;;;18.01;72.08;98967.69;5577030;31;33731;-62
2023/10/26 14:24:30;;;;;;;4.47;2.75;;;;;;;17.98;76.03;98969.22;5568313;32;34389;-62
2023/10/26 14:27:32;;;;;;;6.78;2.85;;;;;;;17.92;74.42;98959.03;5568871;32;33632;-64
2023/10/26 14:30:35;;;;;;;5.05;2.92;;;;;;;17.90;73.36;98956.69;5569018;32;33707;-61
2023/10/26 14:33:38;;;;;;;4.72;2.70;;;;;;;17.91;74.03;98949.31;5569096;32;33746;-61
2023/10/26 14:36:41;;;;;;;9.25;3.37;;;;;;;17.82;72.97;98955.78;5568920;32;34355;-62
2023/10/26 14:39:44;;;;;;;6.82;3.05;;;;;;;17.82;74.77;98968.56;5568085;32;33707;-62
2023/10/26 14:42:47;;;;;;;7.10;2.97;;;;;;;17.76;75.23;98965.37;5568814;32;33624;-62
2023/10/26 14:45:49;;;;;;;5.78;3.00;;;;;;;17.74;73.69;98964.13;5569147;32;33748;-62
2023/10/26 14:48:52;;;;;;;4.45;2.90;;;;;;;17.68;75.05;98960.16;5568140;32;33984;-62
2023/10/26 14:51:54;;;;;;;5.60;2.95;;;;;;;17.61;74.95;98958.91;5568063;32;34418;-61
2023/10/26 14:54:56;;;;;;;10.40;3.50;;;;;;;17.64;79.56;98964.75;5568615;32;33654;-62
2023/10/26 14:57:59;;;;;;;6.87;3.15;;;;;;;17.60;81.23;98959.25;5580824;31;33605;-62
2023/10/26 15:01:01;;;;;;;7.18;3.03;;;;;;;17.59;82.13;98953.06;5587994;31;33718;-62
2023/10/26 15:04:05;;;;;;;10.10;3.17;;;;;;;17.51;77.36;98950.59;5588362;31;34289;-61
2023/10/26 15:07:07;;;;;;;4.40;2.92;;;;;;;17.46;79.33;98954.38;5588439;31;34460;-61
2023/10/26 15:10:10;;;;;;;7.43;3.40;;;;;;;17.40;81.95;98944.22;5588949;31;33661;-61
2023/10/26 15:13:27;;;;;;;6.03;3.40;;;;;;;17.32;80.42;98963.03;5588671;31;33631;-62
2023/10/26 15:16:30;;;;;;;7.15;3.72;;;;;;;17.22;80.50;98966.34;5588410;31;34234;-61
2023/10/26 15:19:34;;;;;;;7.20;4.28;;;;;;;17.17;80.48;98972.03;5588681;31;33323;-62
2023/10/26 15:22:36;;;;;;;8.02;4.35;;;;;;;17.11;82.96;98976.94;5588845;31;34445;-61
2023/10/26 15:25:39;;;;;;;7.75;3.90;;;;;;;17.05;85.56;98974.88;5588179;31;33615;-61
2023/10/26 15:28:41;;;;;;;7.10;3.72;;;;;;;16.99;82.22;98981.75;5588319;31;33759;-62
2023/10/26 15:31:47;;;;;;;7.07;3.40;;;;;;;16.91;83.34;98972.69;5587765;31;33691;-61
2023/10/26 15:34:49;;;;;;;347.27;25.70;;;;;;;16.77;87.39;98975.91;5588145;31;33596;-62
2023/10/26 15:37:52;;;;;;;6.50;3.62;;;;;;;16.80;83.27;98969.00;5580335;31;33706;-62
2023/10/26 15:41:05;;;;;;;7.53;3.35;;;;;;;16.71;86.85;98974.56;5568591;32;34290;-61
2023/10/26 15:44:08;;;;;;;9.95;3.53;;;;;;;16.68;82.43;98970.66;5567080;32;34436;-61
2023/10/26 15:47:11;;;;;;;5.60;3.78;;;;;;;16.62;82.68;98982.91;5567862;32;33682;-62
